KFOE

Topeka Regional Airport

Topeka, Kansas, USA
METAR KFOE 212313Z 36007G19KT 6SM -RA BKN025 OVC031 21/18 A2980 RMK AO2 RAB04 P0000 T02060178
Observed Flight Rules
Jun-21 @ 23:13 UTC (43 minutes ago) Marginal Visual Flight Rules
Wind Visibility Clouds Conditions
360° at 7 knots
 Gusting to 19 knots
6 miles
  • Broken at 2,500' AGL
  • Overcast at 3,100' AGL
  • Light Rain
Temperatures Readings Precipitation
Current 21°C / 70°F
Dewpoint 18°C / 64°F
Humidity 83%
Altimeter 29.8" Hg
Pressure 1009 hPa
Elevation 320
Current Rain 0.005
METAR KFOE 212313Z 36007G19KT 6SM -RA BKN025 OVC031 21/18 A2980 RMK AO2 RAB04 P0000 T02060178
Observed Flight Rules
Jun-21 @ 23:13 UTC
(43 minutes ago)
MVFR
Wind Visibility
360° at 7 knots
 Gusting to 19 knots
6 miles
Clouds
  • Broken at 2,500' AGL
  • Overcast at 3,100' AGL
Conditions
  • Light Rain
Temperature Dewpoint
21°C / 70°F 18°C / 64°F
Humidity Altimeter Pressure
83% 29.8" Hg 1009 hPa
Current Rain
0.005